Time;durP1;ratioP1;P1;durP2;ratioP2;P2;SDS_P1;SDS_P2;PMS_P1;PMS_P2;Temp;Humidity;BMP_temperature;BMP_pressure;BME280_temperature;BME280_humidity;BME280_pressure;Samples;Min_cycle;Max_cycle;Signal;HPM_P1;HPM_P2
2022/10/21 00:01:44;;;;;;;45.45;23.77;;;;;;;14.96;80.01;100065.66;10430282;28;20065;-58
2022/10/21 00:06:45;;;;;;;47.03;22.77;;;;;;;15.17;79.18;100032.91;10415810;28;20076;-58
2022/10/21 00:11:47;;;;;;;52.80;22.08;;;;;;;15.30;78.70;100009.53;10412828;28;20064;-60
2022/10/21 00:16:48;;;;;;;46.45;23.40;;;;;;;15.37;78.73;99980.53;10412518;28;20056;-58
2022/10/21 00:21:50;;;;;;;50.83;24.85;;;;;;;15.39;78.77;99954.06;10412375;28;20183;-58
2022/10/21 00:26:51;;;;;;;47.20;23.08;;;;;;;15.43;78.67;99966.13;10414413;28;20124;-58
2022/10/21 00:31:53;;;;;;;49.92;22.42;;;;;;;15.40;78.52;99986.38;10414922;28;20061;-58
2022/10/21 00:36:54;;;;;;;53.15;24.02;;;;;;;15.43;78.64;99991.31;10414930;28;20086;-58
2022/10/21 00:41:56;;;;;;;49.55;23.45;;;;;;;15.46;78.27;99995.47;10418763;28;20428;-61
2022/10/21 00:47:02;;;;;;;43.63;22.20;;;;;;;15.33;78.67;99985.56;10436137;28;20053;-58
2022/10/21 00:52:08;;;;;;;57.17;24.00;;;;;;;15.39;78.75;99986.56;10416174;28;20442;-57
2022/10/21 00:57:10;;;;;;;52.65;23.35;;;;;;;15.37;78.85;99983.25;10425045;28;20399;-57
2022/10/21 01:02:11;;;;;;;47.13;23.42;;;;;;;15.39;78.56;99981.97;10421806;28;20132;-57
2022/10/21 01:07:13;;;;;;;62.03;23.85;;;;;;;15.40;78.60;99970.13;10415822;28;20128;-56
2022/10/21 01:12:34;;;;;;;53.60;23.58;;;;;;;15.48;78.47;99960.88;10426220;28;20049;-57
2022/10/21 01:17:41;;;;;;;50.28;23.02;;;;;;;15.49;78.66;99949.00;10411921;28;20468;-56
2022/10/21 01:22:55;;;;;;;48.58;22.35;;;;;;;15.54;78.48;99953.75;10408016;28;20061;-58
2022/10/21 01:28:21;;;;;;;58.72;23.60;;;;;;;15.53;78.32;99947.50;10411013;28;20132;-58
2022/10/21 01:33:39;;;;;;;54.55;23.75;;;;;;;15.56;78.47;99920.00;10419856;28;20049;-58
2022/10/21 01:39:03;;;;;;;54.13;22.75;;;;;;;15.62;78.38;99913.69;10403206;28;20068;-59
2022/10/21 01:44:28;;;;;;;50.88;21.67;;;;;;;15.69;78.02;99899.25;10415596;28;20590;-57
2022/10/21 01:50:03;;;;;;;52.00;22.77;;;;;;;15.70;78.16;99887.34;10408230;28;20041;-56
2022/10/21 01:55:12;;;;;;;51.72;21.25;;;;;;;15.72;77.80;99869.84;10391285;28;20125;-59
2022/10/21 02:00:14;;;;;;;53.92;23.73;;;;;;;15.72;78.00;99869.00;10407790;28;20065;-59
2022/10/21 02:05:24;;;;;;;45.47;21.67;;;;;;;15.74;78.13;99866.94;10410460;28;20045;-58
2022/10/21 02:10:31;;;;;;;54.60;23.17;;;;;;;15.75;78.12;99868.59;10399899;28;20128;-58
2022/10/21 02:15:33;;;;;;;49.15;22.20;;;;;;;15.78;78.24;99868.16;10418506;28;20045;-57
2022/10/21 02:20:41;;;;;;;48.25;22.23;;;;;;;15.73;78.13;99874.22;10412560;28;20434;-60
2022/10/21 02:25:44;;;;;;;;;;;;;;;15.76;78.00;99873.81;10401638;28;20914;-56
2022/10/21 02:30:48;;;;;;;49.83;22.02;;;;;;;15.81;78.06;99873.13;10399842;28;19948;-56
2022/10/21 02:36:02;;;;;;;51.35;22.50;;;;;;;15.78;78.10;99873.59;10409428;28;20145;-57
2022/10/21 02:41:08;;;;;;;60.35;22.55;;;;;;;15.82;78.02;99885.66;10405267;28;20044;-57
2022/10/21 02:46:11;;;;;;;74.50;24.13;;;;;;;15.84;78.00;99861.84;10409208;28;20128;-60
2022/10/21 02:51:14;;;;;;;80.85;24.60;;;;;;;15.85;78.15;99868.91;10404971;28;20044;-56
2022/10/21 02:56:15;;;;;;;139.25;28.88;;;;;;;15.79;78.00;99873.34;10414854;28;20111;-57
2022/10/21 03:01:17;;;;;;;138.32;32.47;;;;;;;15.82;78.26;99862.06;10412660;28;20045;-58
2022/10/21 03:06:18;;;;;;;161.45;29.50;;;;;;;15.91;78.06;99856.38;10421932;28;20119;-57
2022/10/21 03:11:20;;;;;;;140.30;29.63;;;;;;;15.95;78.03;99857.56;10415010;28;20040;-57
2022/10/21 03:16:21;;;;;;;243.88;33.25;;;;;;;15.95;78.07;99865.69;10426371;28;20775;-56
2022/10/21 03:21:23;;;;;;;151.07;29.40;;;;;;;15.93;78.04;99843.41;10407970;28;20049;-56
2022/10/21 03:26:24;;;;;;;113.55;26.38;;;;;;;15.99;77.95;99846.03;10426861;28;20045;-58
2022/10/21 03:31:25;;;;;;;92.30;26.80;;;;;;;16.03;77.92;99819.31;10412049;28;20068;-55
2022/10/21 03:36:27;;;;;;;102.10;28.35;;;;;;;16.05;77.93;99811.78;10410975;28;20045;-57
2022/10/21 03:41:28;;;;;;;93.05;26.13;;;;;;;16.04;78.12;99819.09;10419853;28;20077;-57
2022/10/21 03:46:30;;;;;;;77.50;23.88;;;;;;;15.97;78.08;99806.66;10415037;28;20037;-56
2022/10/21 03:51:32;;;;;;;80.07;24.65;;;;;;;16.03;77.99;99811.19;10419507;28;20599;-56
2022/10/21 03:56:33;;;;;;;77.47;24.38;;;;;;;16.07;78.05;99804.25;10416362;28;20060;-58
2022/10/21 04:01:35;;;;;;;79.63;25.35;;;;;;;16.04;78.03;99802.84;10412784;28;20057;-57
2022/10/21 04:06:36;;;;;;;81.80;24.35;;;;;;;16.04;77.96;99796.59;10415364;28;20129;-57
2022/10/21 04:11:38;;;;;;;74.30;23.42;;;;;;;16.02;78.15;99790.56;10423540;28;20563;-59
2022/10/21 04:16:39;;;;;;;92.60;25.33;;;;;;;16.03;78.15;99795.78;10416391;28;20454;-58
2022/10/21 04:21:40;;;;;;;79.95;24.38;;;;;;;16.04;78.03;99786.56;10418765;28;20458;-58
2022/10/21 04:26:42;;;;;;;78.10;23.13;;;;;;;16.05;77.95;99777.41;10413709;28;20820;-57
2022/10/21 04:31:43;;;;;;;75.55;23.67;;;;;;;16.05;78.17;99780.09;10415439;28;20069;-58
2022/10/21 04:36:45;;;;;;;92.72;25.58;;;;;;;16.03;78.26;99779.50;10408043;28;20053;-57
2022/10/21 04:41:48;;;;;;;102.13;26.15;;;;;;;16.03;78.47;99779.50;10414085;28;20072;-61
2022/10/21 04:46:50;;;;;;;106.50;26.67;;;;;;;16.09;78.26;99776.94;10414614;28;20135;-57
2022/10/21 04:51:51;;;;;;;131.45;26.27;;;;;;;16.11;78.60;99767.50;10408330;28;20136;-58
2022/10/21 04:56:52;;;;;;;124.25;26.58;;;;;;;16.18;78.55;99773.69;10405618;28;20124;-56
2022/10/21 05:01:54;;;;;;;126.10;25.92;;;;;;;16.20;78.52;99770.75;10406330;28;20088;-59
2022/10/21 05:06:55;;;;;;;116.40;25.45;;;;;;;16.28;78.24;99764.19;10405024;28;20049;-59
2022/10/21 05:11:57;;;;;;;170.23;27.52;;;;;;;16.29;78.42;99761.25;10403633;28;20072;-59
2022/10/21 05:16:58;;;;;;;148.88;26.48;;;;;;;16.30;78.22;99756.66;10408108;28;20079;-60
2022/10/21 05:21:59;;;;;;;119.32;28.38;;;;;;;16.33;78.28;99756.19;10413652;28;20069;-61
2022/10/21 05:27:01;;;;;;;115.85;27.73;;;;;;;16.36;78.37;99756.56;10404701;28;20124;-59
2022/10/21 05:32:02;;;;;;;123.78;26.42;;;;;;;16.37;78.29;99741.09;10412058;28;20068;-57
2022/10/21 05:37:04;;;;;;;185.85;27.05;;;;;;;16.39;78.42;99739.84;10408202;28;20542;-59
2022/10/21 05:42:05;;;;;;;116.55;24.65;;;;;;;16.37;78.59;99739.25;10406942;28;20451;-59
2022/10/21 05:47:07;;;;;;;101.00;23.42;;;;;;;16.39;78.45;99728.97;10405470;28;20048;-59
2022/10/21 05:52:08;;;;;;;186.50;29.08;;;;;;;16.43;78.46;99734.78;10417336;28;20079;-60
2022/10/21 05:57:10;;;;;;;168.00;24.65;;;;;;;16.36;78.72;99747.59;10408837;28;20148;-64
2022/10/21 06:02:11;;;;;;;126.85;23.35;;;;;;;16.39;78.45;99739.00;10418578;28;20049;-65
2022/10/21 06:07:12;;;;;;;102.50;23.23;;;;;;;16.44;78.56;99733.72;10413841;28;20045;-65
2022/10/21 06:12:14;;;;;;;115.07;23.13;;;;;;;16.49;78.68;99741.16;10417916;28;20076;-64
2022/10/21 06:17:15;;;;;;;87.57;22.45;;;;;;;16.54;78.42;99722.31;10415989;28;20108;-64
2022/10/21 06:22:17;;;;;;;104.57;23.92;;;;;;;16.58;78.46;99737.06;10412913;28;20033;-64
2022/10/21 06:27:19;;;;;;;101.03;23.58;;;;;;;16.57;78.54;99732.72;10415250;28;20076;-65
2022/10/21 06:32:20;;;;;;;100.47;22.23;;;;;;;16.62;78.40;99740.97;10425475;28;20037;-65
2022/10/21 06:37:21;;;;;;;93.53;23.55;;;;;;;16.65;78.41;99746.78;10426548;28;20056;-65
2022/10/21 06:42:23;;;;;;;77.80;22.48;;;;;;;16.72;78.37;99746.66;10430437;28;20053;-65
2022/10/21 06:47:24;;;;;;;77.18;20.60;;;;;;;16.72;78.47;99746.66;10428891;28;20503;-65
2022/10/21 06:52:25;;;;;;;60.03;18.85;;;;;;;16.77;78.45;99746.81;10435443;28;20076;-65
2022/10/21 06:57:27;;;;;;;59.08;19.58;;;;;;;16.79;78.29;99743.88;10436693;28;20045;-65
2022/10/21 07:02:28;;;;;;;47.17;17.85;;;;;;;16.81;78.48;99749.91;10436777;28;20041;-66
2022/10/21 07:07:30;;;;;;;36.65;16.23;;;;;;;16.80;78.53;99745.50;10437469;28;20045;-65
2022/10/21 07:12:31;;;;;;;30.08;14.18;;;;;;;16.69;78.77;99755.28;10434866;28;20052;-66
2022/10/21 07:17:33;;;;;;;27.02;12.63;;;;;;;16.69;78.63;99760.72;10434973;28;20037;-66
2022/10/21 07:22:34;;;;;;;23.48;13.07;;;;;;;16.69;78.83;99768.03;10437028;28;20041;-66
2022/10/21 07:27:36;;;;;;;27.60;13.25;;;;;;;16.66;78.56;99774.72;10450115;28;20075;-66
2022/10/21 07:32:38;;;;;;;27.77;13.88;;;;;;;16.63;78.66;99775.22;10441744;28;20098;-59
2022/10/21 07:37:39;;;;;;;27.92;13.25;;;;;;;16.65;78.11;99779.34;10433090;28;20546;-61
2022/10/21 07:42:41;;;;;;;27.38;14.15;;;;;;;16.62;78.55;99789.81;10433921;28;20038;-57
2022/10/21 07:47:43;;;;;;;22.98;12.50;;;;;;;16.57;78.34;99792.41;10438843;28;20092;-65
2022/10/21 07:52:44;;;;;;;25.48;12.57;;;;;;;16.49;78.45;99798.97;10449640;28;20382;-65
2022/10/21 07:58:04;;;;;;;26.42;13.00;;;;;;;16.53;78.56;99797.47;10446354;28;20046;-66
2022/10/21 08:03:05;;;;;;;32.88;13.38;;;;;;;16.60;78.33;99803.59;10443512;28;20049;-67
2022/10/21 08:08:07;;;;;;;26.08;13.55;;;;;;;16.51;78.62;99794.16;10454013;28;20057;-66
2022/10/21 08:13:08;;;;;;;29.20;13.98;;;;;;;16.46;78.78;99797.53;10446130;28;20045;-67
2022/10/21 08:18:10;;;;;;;26.83;13.45;;;;;;;16.26;79.43;99791.53;10459141;28;20053;-66
2022/10/21 08:23:13;;;;;;;22.92;12.70;;;;;;;16.23;79.68;99789.25;10472126;28;20083;-65
2022/10/21 08:28:15;;;;;;;28.77;13.85;;;;;;;16.21;80.00;99783.25;10464775;28;20041;-66
2022/10/21 08:33:17;;;;;;;31.10;14.57;;;;;;;16.25;80.06;99781.72;10664432;23;20057;-65
2022/10/21 08:43:37;;;;;;;33.42;14.80;;;;;;;16.24;80.36;99785.50;10559903;22;20110;-63
2022/10/21 08:48:45;;;;;;;35.78;15.98;;;;;;;16.24;80.29;99785.50;10460297;23;20038;-64
2022/10/21 08:53:48;;;;;;;40.83;16.45;;;;;;;16.31;80.62;99785.41;10338180;28;20193;-67
2022/10/21 08:58:50;;;;;;;35.78;16.58;;;;;;;16.40;80.23;99779.47;10360328;28;20681;-65
2022/10/21 09:03:54;;;;;;;41.05;17.23;;;;;;;16.50;80.02;99781.63;10369818;28;20487;-69
2022/10/21 09:09:04;;;;;;;42.67;15.45;;;;;;;16.52;80.30;99778.69;10333487;28;20069;-69
2022/10/21 09:14:53;;;;;;;38.42;16.48;;;;;;;16.50;80.52;99768.06;10343165;28;20042;-70
2022/10/21 09:20:32;;;;;;;34.10;15.52;;;;;;;16.56;80.47;99767.13;10384754;28;20485;-71
2022/10/21 09:25:44;;;;;;;34.70;15.15;;;;;;;16.60;80.56;99783.78;10396815;28;20062;-72
2022/10/21 09:30:46;;;;;;;38.85;15.43;;;;;;;16.54;80.60;99784.72;10366671;28;20081;-70
2022/10/21 09:36:09;;;;;;;34.25;15.88;;;;;;;16.56;81.15;99786.13;10355482;28;20606;-70
2022/10/21 09:41:21;;;;;;;34.13;14.93;;;;;;;16.52;81.06;99786.84;10390803;28;20050;-67
2022/10/21 09:46:27;;;;;;;31.77;16.00;;;;;;;16.54;80.90;99790.16;10380686;28;20057;-68
2022/10/21 09:51:32;;;;;;;32.53;16.30;;;;;;;16.53;81.33;99796.63;10402096;28;20061;-66
2022/10/21 09:56:37;;;;;;;36.65;15.93;;;;;;;16.65;81.00;99794.81;10374416;28;20107;-73
2022/10/21 10:01:41;;;;;;;36.83;16.42;;;;;;;16.61;81.44;99791.72;10360299;28;20038;-73
2022/10/21 10:06:43;;;;;;;34.38;15.07;;;;;;;16.62;81.65;99787.09;10367073;28;20050;-72
2022/10/21 10:11:50;;;;;;;31.70;15.55;;;;;;;16.69;81.70;99797.88;10363131;28;20073;-71
2022/10/21 10:16:52;;;;;;;;;;;;;;;16.70;81.57;99796.81;10368602;28;20033;-73
2022/10/21 10:22:14;;;;;;;32.17;15.35;;;;;;;16.75;81.83;99799.69;10377764;28;19921;-65
2022/10/21 10:27:22;;;;;;;33.75;15.00;;;;;;;16.72;81.73;99800.94;10378197;28;20080;-67
2022/10/21 10:32:30;;;;;;;29.48;15.18;;;;;;;16.68;82.23;99818.75;10379345;28;20042;-69
2022/10/21 10:37:36;;;;;;;32.83;14.88;;;;;;;16.48;82.85;99819.00;10356140;28;20046;-72
2022/10/21 10:42:43;;;;;;;27.37;12.83;;;;;;;16.52;82.83;99808.53;10324951;28;20650;-76
2022/10/21 10:47:55;;;;;;;19.70;10.57;;;;;;;16.66;82.46;99816.25;10323083;28;20074;-74
2022/10/21 10:53:26;;;;;;;20.10;10.52;;;;;;;16.73;82.51;99809.94;10316053;28;20485;-72
2022/10/21 10:58:32;;;;;;;23.33;11.27;;;;;;;16.87;82.19;99794.31;10359062;28;20069;-73
2022/10/21 11:03:39;;;;;;;22.33;10.67;;;;;;;16.89;82.59;99784.88;10356916;28;20050;-76
2022/10/21 11:08:48;;;;;;;22.42;10.73;;;;;;;17.01;82.34;99777.59;10364852;28;20124;-72
2022/10/21 11:13:52;;;;;;;16.48;8.75;;;;;;;17.08;82.60;99769.34;10380001;28;20088;-73
2022/10/21 11:19:24;;;;;;;13.25;6.65;;;;;;;17.08;82.49;99766.66;10379405;28;20053;-73
2022/10/21 11:24:36;;;;;;;11.95;6.20;;;;;;;17.14;82.38;99735.84;10363073;28;20041;-73
2022/10/21 11:29:43;;;;;;;10.25;5.78;;;;;;;17.09;82.72;99765.56;10362064;28;20381;-74
2022/10/21 11:35:20;;;;;;;11.65;5.85;;;;;;;17.07;82.58;99788.59;10366427;28;20092;-72
2022/10/21 11:40:40;;;;;;;10.77;6.13;;;;;;;17.09;82.90;99794.63;10366790;28;20104;-72
2022/10/21 11:46:02;;;;;;;10.70;5.70;;;;;;;17.10;83.07;99801.69;10372989;28;20046;-71
2022/10/21 11:51:33;;;;;;;12.07;6.25;;;;;;;16.99;83.31;99825.06;10371469;28;20438;-69
2022/10/21 11:56:45;;;;;;;13.00;7.15;;;;;;;17.09;83.00;99822.59;10371324;28;20137;-69
2022/10/21 12:01:52;;;;;;;10.48;5.95;;;;;;;17.06;83.28;99825.75;10377091;28;20050;-68
2022/10/21 12:07:12;;;;;;;7.68;4.20;;;;;;;17.08;83.34;99826.38;10371569;28;20054;-68
2022/10/21 12:12:21;;;;;;;9.95;5.35;;;;;;;17.11;83.69;99825.09;10369698;28;20081;-68
2022/10/21 12:17:24;;;;;;;10.85;5.78;;;;;;;17.29;83.43;99816.84;10370248;28;20045;-69
2022/10/21 12:22:28;;;;;;;6.85;3.80;;;;;;;17.33;83.72;99806.34;10368686;28;20045;-68
2022/10/21 12:27:38;;;;;;;6.90;4.40;;;;;;;17.64;83.53;99810.63;10366933;28;20127;-68
2022/10/21 12:33:03;;;;;;;3.88;2.50;;;;;;;17.76;83.74;99803.31;10340436;28;20405;-69
2022/10/21 12:38:18;;;;;;;3.85;2.45;;;;;;;17.88;83.87;99799.78;10325645;28;20058;-69
2022/10/21 12:43:27;;;;;;;4.97;3.35;;;;;;;17.99;83.39;99799.78;10348349;28;20041;-67
2022/10/21 12:48:37;;;;;;;4.88;2.30;;;;;;;17.98;83.27;99817.16;10389483;28;20042;-67
2022/10/21 12:53:45;;;;;;;3.40;2.08;;;;;;;18.10;82.54;99813.59;10392102;28;20046;-68
2022/10/21 12:59:00;;;;;;;3.95;2.22;;;;;;;18.15;82.71;99806.38;10381235;28;20052;-69
2022/10/21 13:04:02;;;;;;;3.95;1.70;;;;;;;18.40;82.63;99803.38;10378313;28;20049;-69
2022/10/21 13:10:04;;;;;;;4.10;2.22;;;;;;;18.40;82.61;99805.25;10363117;28;20073;-70
2022/10/21 13:15:21;;;;;;;2.22;1.83;;;;;;;18.46;82.05;99812.44;10364321;28;20569;-69
2022/10/21 13:20:22;;;;;;;2.63;1.20;;;;;;;18.68;81.56;99809.06;10369086;28;20520;-69
2022/10/21 13:25:30;;;;;;;2.33;1.30;;;;;;;19.01;81.01;99805.63;10354592;28;20473;-69
2022/10/21 13:30:36;;;;;;;3.28;2.08;;;;;;;19.32;80.67;99800.72;10308023;28;20062;-66
2022/10/21 13:36:11;;;;;;;3.67;1.50;;;;;;;19.55;80.33;99797.81;10341213;28;20104;-68
2022/10/21 13:41:26;;;;;;;2.72;1.50;;;;;;;19.51;80.03;99798.56;10327968;28;20054;-66
2022/10/21 13:46:38;;;;;;;5.57;2.28;;;;;;;19.56;79.50;99810.38;10325461;28;20050;-67
2022/10/21 13:51:45;;;;;;;4.00;1.30;;;;;;;19.49;79.42;99809.72;10353751;28;20978;-66
2022/10/21 13:56:47;;;;;;;5.28;1.15;;;;;;;19.45;79.38;99819.47;10316734;28;20066;-68
2022/10/21 14:01:54;;;;;;;1.42;1.15;;;;;;;19.39;78.98;99801.34;10320317;28;20172;-68
2022/10/21 14:07:00;;;;;;;5.28;1.08;;;;;;;19.34;79.28;99806.75;10320888;28;20070;-66
2022/10/21 14:12:05;;;;;;;4.20;1.98;;;;;;;19.36;78.87;99810.88;10321059;28;20069;-68
2022/10/21 14:17:26;;;;;;;4.53;1.20;;;;;;;19.42;78.95;99811.78;10319697;28;20084;-69
2022/10/21 14:22:30;;;;;;;1.98;1.05;;;;;;;19.50;78.90;99808.63;10321597;28;20100;-68
2022/10/21 14:27:34;;;;;;;3.03;1.30;;;;;;;19.43;78.70;99805.25;10321983;28;20065;-69
2022/10/21 14:32:36;;;;;;;2.55;0.98;;;;;;;19.47;78.53;99795.53;10305980;28;20546;-66
2022/10/21 14:37:50;;;;;;;7.35;1.00;;;;;;;19.39;78.65;99791.31;10317341;28;20046;-67
2022/10/21 14:42:55;;;;;;;5.18;2.97;;;;;;;19.48;78.33;99780.81;10318935;28;20137;-67
2022/10/21 14:47:59;;;;;;;7.63;2.95;;;;;;;19.53;78.40;99786.34;10317586;28;20130;-67
2022/10/21 14:53:01;;;;;;;8.93;2.08;;;;;;;19.57;78.36;99784.75;10320860;28;20046;-67
2022/10/21 14:58:09;;;;;;;5.60;1.90;;;;;;;19.54;78.23;99795.34;10319047;28;20541;-66
2022/10/21 15:03:11;;;;;;;6.13;1.45;;;;;;;19.49;78.36;99801.56;10323161;28;20468;-66
2022/10/21 15:08:33;;;;;;;20.58;4.75;;;;;;;19.45;78.30;99786.75;10326674;28;20054;-67
2022/10/21 15:13:34;;;;;;;3.70;2.10;;;;;;;19.43;78.45;99780.72;10328119;28;20030;-66
2022/10/21 15:18:51;;;;;;;4.03;2.20;;;;;;;19.33;78.50;99775.09;10336368;28;20053;-67
2022/10/21 15:23:56;;;;;;;2.78;1.90;;;;;;;19.29;78.65;99768.50;10365088;28;20134;-67
2022/10/21 15:28:57;;;;;;;3.75;1.60;;;;;;;19.25;78.93;99775.50;10329166;28;20129;-67
2022/10/21 15:33:59;;;;;;;4.78;1.60;;;;;;;19.28;78.85;99784.03;10327394;28;20078;-67
2022/10/21 15:39:00;;;;;;;8.38;2.58;;;;;;;19.22;78.61;99766.75;10359285;28;20073;-67
2022/10/21 15:44:16;;;;;;;6.13;2.03;;;;;;;19.11;78.82;99764.94;10326036;28;20050;-66
2022/10/21 15:49:20;;;;;;;6.38;1.40;;;;;;;19.01;79.03;99781.09;10357825;28;20050;-66
2022/10/21 15:54:22;;;;;;;3.05;1.55;;;;;;;18.92;79.06;99785.31;10326395;28;20133;-67
2022/10/21 15:59:28;;;;;;;5.60;2.42;;;;;;;18.91;78.73;99789.09;10325268;28;20116;-67
2022/10/21 16:04:29;;;;;;;4.30;1.15;;;;;;;18.85;79.19;99780.00;10326428;28;21476;-67
2022/10/21 16:09:31;;;;;;;3.80;1.20;;;;;;;18.88;78.82;99773.25;10319791;28;20132;-67
2022/10/21 16:14:32;;;;;;;3.78;1.48;;;;;;;18.88;78.54;99773.25;10325123;28;20073;-66
2022/10/21 16:19:34;;;;;;;4.97;1.55;;;;;;;18.87;78.52;99771.59;10343546;28;20046;-66
2022/10/21 16:24:35;;;;;;;5.05;1.70;;;;;;;18.88;78.32;99776.81;10366804;28;20125;-66
2022/10/21 16:29:36;;;;;;;5.13;1.73;;;;;;;18.83;78.31;99776.72;10364567;28;20070;-66
2022/10/21 16:34:38;;;;;;;4.13;1.50;;;;;;;18.82;78.16;99781.34;10363981;28;20065;-67
2022/10/21 16:39:40;;;;;;;6.45;1.95;;;;;;;18.83;78.12;99784.88;10354574;28;20078;-65
2022/10/21 16:44:43;;;;;;;6.18;2.30;;;;;;;18.76;78.23;99786.88;10319523;28;20144;-61
2022/10/21 16:49:46;;;;;;;4.40;2.40;;;;;;;18.76;78.00;99790.47;10339657;28;20069;-61
2022/10/21 16:54:49;;;;;;;9.82;2.70;;;;;;;18.71;78.01;99797.69;10363810;28;20100;-63
2022/10/21 16:59:50;;;;;;;8.38;2.63;;;;;;;18.72;77.88;99800.19;10365353;28;20117;-62
2022/10/21 17:04:51;;;;;;;6.07;2.20;;;;;;;18.63;78.14;99798.91;10365334;28;20038;-58
2022/10/21 17:09:53;;;;;;;8.68;3.15;;;;;;;18.60;78.36;99805.69;10366260;28;20045;-63
2022/10/21 17:14:54;;;;;;;7.53;2.28;;;;;;;18.57;78.57;99808.88;10365848;28;20072;-60
2022/10/21 17:19:56;;;;;;;9.02;4.05;;;;;;;18.56;78.69;99825.44;10361524;28;20449;-60
2022/10/21 17:24:57;;;;;;;7.75;3.13;;;;;;;18.53;78.72;99836.81;10359761;28;20100;-60
2022/10/21 17:29:59;;;;;;;6.22;3.55;;;;;;;18.54;78.86;99824.84;10363326;28;20621;-59
2022/10/21 17:35:01;;;;;;;6.00;3.33;;;;;;;18.59;78.67;99836.66;10364042;28;20444;-61
2022/10/21 17:40:03;;;;;;;9.63;3.92;;;;;;;18.58;78.48;99831.47;10365104;28;20081;-60
2022/10/21 17:45:05;;;;;;;8.68;3.42;;;;;;;18.53;78.65;99832.19;10363390;28;20107;-60
2022/10/21 17:50:08;;;;;;;12.35;3.03;;;;;;;18.50;78.67;99829.13;10363252;28;20038;-60
2022/10/21 17:55:09;;;;;;;13.65;3.50;;;;;;;18.56;78.66;99833.59;10362213;28;20133;-60
2022/10/21 18:00:12;;;;;;;9.68;4.53;;;;;;;18.57;78.60;99848.88;10362251;28;20053;-61
2022/10/21 18:05:14;;;;;;;7.72;3.03;;;;;;;18.51;78.77;99847.94;10359440;28;20046;-60
2022/10/21 18:10:15;;;;;;;6.97;2.60;;;;;;;18.47;78.74;99835.06;10359106;28;20137;-61
2022/10/21 18:15:18;;;;;;;5.03;2.90;;;;;;;18.41;79.23;99836.84;10363543;28;20053;-59
2022/10/21 18:20:19;;;;;;;4.20;1.98;;;;;;;18.43;79.13;99849.16;10363372;28;20057;-59
2022/10/21 18:25:21;;;;;;;6.80;2.88;;;;;;;18.45;78.87;99869.88;10357538;28;20046;-59
2022/10/21 18:30:22;;;;;;;6.93;3.90;;;;;;;18.47;78.85;99856.84;10313330;28;20093;-62
2022/10/21 18:35:24;;;;;;;6.07;3.20;;;;;;;18.51;78.44;99849.84;10314345;28;20144;-60
2022/10/21 18:40:27;;;;;;;6.35;3.00;;;;;;;18.57;78.27;99844.25;10327019;28;20062;-59
2022/10/21 18:45:28;;;;;;;6.60;2.70;;;;;;;18.47;78.37;99840.50;10324151;28;20125;-59
2022/10/21 18:50:30;;;;;;;8.80;2.85;;;;;;;18.42;78.49;99828.44;10322902;28;20078;-63
2022/10/21 18:55:31;;;;;;;7.57;3.00;;;;;;;18.47;78.42;99811.38;10332314;28;20051;-62
2022/10/21 19:00:32;;;;;;;8.55;2.88;;;;;;;18.51;78.43;99811.75;10333320;28;20097;-63
2022/10/21 19:05:34;;;;;;;9.23;3.70;;;;;;;18.50;78.06;99823.69;10355353;28;20095;-61
2022/10/21 19:10:35;;;;;;;6.75;3.35;;;;;;;18.43;78.08;99821.94;10323541;28;20133;-61
2022/10/21 19:15:36;;;;;;;6.97;3.65;;;;;;;18.45;77.85;99840.75;10364174;28;20133;-59
2022/10/21 19:20:39;;;;;;;13.35;5.47;;;;;;;18.42;77.78;99828.44;10370744;28;20050;-62
2022/10/21 19:25:40;;;;;;;5.35;3.97;;;;;;;18.35;77.92;99825.03;10370947;28;20057;-61
2022/10/21 19:30:44;;;;;;;6.50;4.28;;;;;;;18.36;77.63;99839.44;10368228;28;20050;-60
2022/10/21 19:35:45;;;;;;;7.03;4.57;;;;;;;18.35;77.79;99849.53;10369454;28;20145;-59
2022/10/21 19:40:46;;;;;;;7.88;4.38;;;;;;;18.30;77.97;99873.88;10366686;28;20576;-59
2022/10/21 19:45:49;;;;;;;11.07;4.43;;;;;;;18.25;78.06;99884.69;10366765;28;20053;-59
2022/10/21 19:50:52;;;;;;;11.88;4.80;;;;;;;18.22;78.10;99890.59;10364964;28;20041;-58
2022/10/21 19:55:54;;;;;;;12.50;4.38;;;;;;;18.24;78.02;99877.56;10365972;28;20311;-58
2022/10/21 20:01:09;;;;;;;13.85;6.18;;;;;;;18.26;77.90;99878.16;10327431;28;20145;-58
2022/10/21 20:06:16;;;;;;;7.80;3.83;;;;;;;18.17;78.02;99895.94;10322246;28;20038;-59
2022/10/21 20:11:19;;;;;;;7.97;4.00;;;;;;;18.15;78.06;99889.91;10345093;28;20038;-61
2022/10/21 20:16:36;;;;;;;10.38;4.30;;;;;;;18.15;77.53;99879.84;10365370;28;20145;-60
2022/10/21 20:21:37;;;;;;;10.53;5.07;;;;;;;18.10;77.86;99887.88;10365786;28;20870;-60
2022/10/21 20:26:39;;;;;;;13.60;5.57;;;;;;;18.08;77.91;99884.56;10361131;28;20204;-59
2022/10/21 20:31:45;;;;;;;9.00;5.47;;;;;;;18.07;77.91;99891.06;10361856;28;20034;-59
2022/10/21 20:36:47;;;;;;;11.57;5.50;;;;;;;18.03;77.56;99893.44;10356479;28;20046;-58
2022/10/21 20:41:48;;;;;;;11.38;6.13;;;;;;;18.00;77.39;99884.91;10364408;28;20049;-60
2022/10/21 20:46:50;;;;;;;12.52;6.25;;;;;;;17.95;77.59;99887.50;10361258;28;20084;-60
2022/10/21 20:51:51;;;;;;;11.98;6.47;;;;;;;17.91;77.55;99897.19;10362858;28;20080;-58
2022/10/21 20:56:52;;;;;;;13.07;5.82;;;;;;;17.84;77.41;99898.16;10361032;28;20134;-61
2022/10/21 21:01:54;;;;;;;15.07;6.22;;;;;;;17.80;77.50;99901.53;10363037;28;20077;-59
2022/10/21 21:06:56;;;;;;;7.55;5.30;;;;;;;17.74;77.67;99911.47;10362053;28;20185;-59
2022/10/21 21:11:57;;;;;;;11.32;6.70;;;;;;;17.71;77.63;99906.47;10363084;28;20066;-61
2022/10/21 21:17:04;;;;;;;12.07;7.03;;;;;;;17.66;77.85;99919.16;10360616;28;20034;-59
2022/10/21 21:22:06;;;;;;;17.00;7.95;;;;;;;17.57;77.68;99908.59;10359973;28;20134;-60
2022/10/21 21:27:09;;;;;;;10.80;7.05;;;;;;;17.53;78.11;99904.69;10363152;28;20073;-59
2022/10/21 21:32:10;;;;;;;12.20;6.35;;;;;;;17.54;77.72;99864.75;10357516;28;20595;-62
2022/10/21 21:37:12;;;;;;;21.33;9.93;;;;;;;17.54;77.84;99859.31;10366123;28;20149;-61
2022/10/21 21:42:13;;;;;;;11.07;7.10;;;;;;;17.48;77.95;99844.78;10363011;28;20080;-59
2022/10/21 21:47:15;;;;;;;17.05;7.95;;;;;;;17.36;78.39;99866.50;10365618;28;20453;-60
2022/10/21 21:52:16;;;;;;;12.55;7.20;;;;;;;17.39;78.33;99879.59;10364146;28;20133;-60
2022/10/21 21:57:18;;;;;;;18.95;8.57;;;;;;;17.41;78.01;99839.44;10363486;28;20676;-62
2022/10/21 22:02:34;;;;;;;19.20;8.73;;;;;;;17.37;78.00;99865.41;10362585;28;20042;-63
2022/10/21 22:07:36;;;;;;;17.85;8.30;;;;;;;17.32;78.16;99872.59;10360282;28;20038;-61
2022/10/21 22:12:38;;;;;;;15.93;9.05;;;;;;;17.25;78.21;99883.59;10362886;28;20044;-60
2022/10/21 22:17:39;;;;;;;23.63;8.65;;;;;;;17.28;78.29;99896.72;10363226;28;20042;-62
2022/10/21 22:22:41;;;;;;;20.25;8.18;;;;;;;17.30;78.08;99869.28;10363599;28;20400;-61
2022/10/21 22:27:43;;;;;;;14.98;8.48;;;;;;;17.28;78.19;99890.44;10362401;28;20419;-61
2022/10/21 22:32:44;;;;;;;17.67;8.45;;;;;;;17.21;78.05;99877.78;10363203;28;20133;-59
2022/10/21 22:37:46;;;;;;;16.08;8.88;;;;;;;17.22;78.06;99870.47;10363532;28;20042;-60
2022/10/21 22:42:47;;;;;;;19.55;8.68;;;;;;;17.23;77.77;99882.97;10360898;28;20133;-62
2022/10/21 22:47:49;;;;;;;18.25;9.40;;;;;;;17.21;77.95;99891.34;10363230;28;20108;-60
2022/10/21 22:52:50;;;;;;;18.92;10.05;;;;;;;17.15;77.84;99876.00;10362793;28;20455;-61
2022/10/21 22:57:52;;;;;;;17.70;8.95;;;;;;;17.08;78.32;99861.69;10363123;28;20132;-62
2022/10/21 23:02:53;;;;;;;18.45;9.80;;;;;;;17.07;78.00;99864.63;10365607;28;20074;-61
2022/10/21 23:07:55;;;;;;;16.33;7.75;;;;;;;17.07;78.00;99864.63;10329721;28;20109;-61
2022/10/21 23:12:58;;;;;;;17.38;8.90;;;;;;;17.11;78.13;99861.22;10350723;28;20038;-61
2022/10/21 23:18:07;;;;;;;17.88;8.85;;;;;;;17.14;78.34;99871.63;10369672;28;20428;-61
2022/10/21 23:23:08;;;;;;;16.05;7.97;;;;;;;17.16;78.21;99884.94;10343184;28;20050;-60